createdAt,value
2018-11-10T00:00:17.033Z,92.13
2018-11-10T00:02:46.795Z,105.67
2018-11-10T00:05:16.516Z,109.83
2018-11-10T00:07:45.710Z,102.17
2018-11-10T00:10:15.009Z,119.83
2018-11-10T00:12:44.204Z,99.73
2018-11-10T00:15:14.239Z,100.67
2018-11-10T00:17:43.351Z,88.70
2018-11-10T00:20:12.515Z,104.43
2018-11-10T00:22:42.348Z,110.87
2018-11-10T00:25:12.642Z,102.00
2018-11-10T00:27:42.583Z,100.30
2018-11-10T00:30:16.080Z,88.47
2018-11-10T00:32:45.772Z,91.47
2018-11-10T00:35:14.952Z,100.30
2018-11-10T00:37:44.272Z,94.57
2018-11-10T00:40:14.733Z,100.43
2018-11-10T00:42:44.291Z,91.87
2018-11-10T00:45:13.416Z,94.83
2018-11-10T00:47:42.523Z,92.10
2018-11-10T00:50:11.622Z,83.13
2018-11-10T00:52:40.776Z,97.13
2018-11-10T00:55:10.188Z,89.03
2018-11-10T00:57:39.371Z,89.07
2018-11-10T01:00:10.636Z,85.70
2018-11-10T01:02:39.742Z,92.43
2018-11-10T01:05:08.862Z,101.60
2018-11-10T01:07:37.948Z,87.00
2018-11-10T01:10:09.265Z,91.23
2018-11-10T01:12:38.410Z,92.77
2018-11-10T01:15:10.232Z,88.97
2018-11-10T01:17:39.626Z,85.87
2018-11-10T01:20:09.959Z,86.07
2018-11-10T01:22:39.223Z,79.00
2018-11-10T01:25:09.474Z,92.07
2018-11-10T01:27:38.636Z,91.00
2018-11-10T01:30:10.890Z,81.53
2018-11-10T01:32:40.023Z,90.20
2018-11-10T01:35:09.141Z,75.67
2018-11-10T01:37:38.361Z,108.40
2018-11-10T01:40:09.934Z,84.10
2018-11-10T01:42:39.072Z,94.47
2018-11-10T01:45:11.430Z,87.47
2018-11-10T01:47:40.665Z,75.53
2018-11-10T01:50:10.496Z,92.47
2018-11-10T01:52:39.870Z,86.67
2018-11-10T01:55:09.789Z,84.30
2018-11-10T01:57:39.330Z,93.03
2018-11-10T02:00:12.000Z,85.40
2018-11-10T02:02:41.103Z,81.80
2018-11-10T02:05:10.196Z,83.60
2018-11-10T02:07:39.302Z,85.30
2018-11-10T02:10:09.598Z,82.13
2018-11-10T02:12:38.702Z,79.80
2018-11-10T02:15:14.468Z,85.63
2018-11-10T02:17:43.608Z,82.00
2018-11-10T02:20:14.078Z,90.57
2018-11-10T02:22:43.297Z,80.23
2018-11-10T02:25:12.959Z,91.13
2018-11-10T02:27:42.339Z,99.00
2018-11-10T02:30:12.094Z,90.47
2018-11-10T02:32:41.236Z,77.70
2018-11-10T02:35:11.196Z,84.83
2018-11-10T02:37:40.815Z,89.73
2018-11-10T02:40:12.458Z,85.67
2018-11-10T02:42:41.588Z,85.73
2018-11-10T02:45:11.976Z,82.50
2018-11-10T02:47:41.265Z,88.47
2018-11-10T02:50:10.396Z,91.60
2018-11-10T02:52:39.572Z,97.13
2018-11-10T02:55:09.904Z,92.60
2018-11-10T02:57:39.082Z,92.90
2018-11-10T03:00:09.947Z,95.07
2018-11-10T03:02:39.178Z,92.67
2018-11-10T03:05:08.949Z,91.07
2018-11-10T03:07:38.654Z,93.43
2018-11-10T03:10:09.244Z,99.13
2018-11-10T03:12:38.999Z,100.57
2018-11-10T03:15:09.861Z,105.63
2018-11-10T03:17:39.103Z,91.53
2018-11-10T03:20:11.193Z,93.37
2018-11-10T03:22:40.353Z,95.60
2018-11-10T03:25:09.803Z,98.43
2018-11-10T03:27:39.007Z,92.13
2018-11-10T03:30:08.400Z,93.27
2018-11-10T03:32:38.028Z,89.80
2018-11-10T03:35:08.238Z,93.77
2018-11-10T03:37:37.353Z,96.83
2018-11-10T03:40:08.743Z,97.43
2018-11-10T03:42:38.169Z,92.77
2018-11-10T03:45:08.611Z,107.93
2018-11-10T03:47:37.767Z,107.67
2018-11-10T03:50:07.617Z,105.90
2018-11-10T03:52:37.129Z,108.60
2018-11-10T03:55:07.235Z,99.30
2018-11-10T03:57:36.400Z,100.73
2018-11-10T04:00:06.132Z,95.70
2018-11-10T04:02:35.259Z,100.93
2018-11-10T04:05:04.445Z,117.80
2018-11-10T04:07:33.612Z,112.93
2018-11-10T04:10:02.998Z,99.60
2018-11-10T04:12:32.147Z,95.10
2018-11-10T04:15:01.293Z,97.03
2018-11-10T04:17:30.416Z,92.97
2018-11-10T04:19:59.578Z,106.03
2018-11-10T04:22:33.184Z,109.87
2018-11-10T04:25:03.151Z,103.00
2018-11-10T04:27:32.886Z,96.20
2018-11-10T04:30:02.676Z,105.23
2018-11-10T04:32:31.898Z,95.90
2018-11-10T04:35:01.018Z,107.07
2018-11-10T04:37:30.173Z,98.20
2018-11-10T04:39:59.325Z,89.10
2018-11-10T04:42:28.431Z,88.47
2018-11-10T04:44:57.594Z,91.63
2018-11-10T04:47:26.735Z,92.43
2018-11-10T04:49:55.875Z,93.40
2018-11-10T04:52:25.032Z,95.97
2018-11-10T04:54:54.134Z,96.57
2018-11-10T04:57:23.255Z,89.50
2018-11-10T04:59:52.399Z,91.27
2018-11-10T05:02:21.506Z,85.53
2018-11-10T05:04:50.639Z,89.40
2018-11-10T05:07:19.768Z,90.97
2018-11-10T05:09:48.903Z,86.90
2018-11-10T05:12:18.027Z,101.20
2018-11-10T05:14:47.159Z,94.53
2018-11-10T05:17:16.280Z,78.83
2018-11-10T05:19:45.438Z,82.13
2018-11-10T05:22:14.555Z,81.60
2018-11-10T05:24:43.722Z,103.43
2018-11-10T05:27:12.868Z,87.07
2018-11-10T05:29:42.000Z,88.50
2018-11-10T05:32:11.352Z,82.67
2018-11-10T05:34:40.499Z,83.20
2018-11-10T05:37:09.615Z,87.50
2018-11-10T05:39:39.573Z,70.43
2018-11-10T05:42:08.715Z,78.63
2018-11-10T05:44:44.638Z,89.73
2018-11-10T05:47:13.775Z,76.00
2018-11-10T05:49:42.942Z,70.47
2018-11-10T05:52:12.051Z,78.30
2018-11-10T05:54:41.179Z,78.13
2018-11-10T05:57:10.362Z,86.47
2018-11-10T05:59:39.469Z,77.33
2018-11-10T06:02:08.594Z,92.73
2018-11-10T06:04:37.694Z,87.10
2018-11-10T06:07:06.841Z,82.70
2018-11-10T06:09:36.003Z,90.03
2018-11-10T06:12:05.131Z,82.83
2018-11-10T06:14:34.228Z,86.33
2018-11-10T06:17:03.402Z,81.70
2018-11-10T06:19:32.512Z,86.97
2018-11-10T06:22:01.730Z,78.17
2018-11-10T06:24:30.867Z,78.90
2018-11-10T06:26:59.994Z,84.67
2018-11-10T06:29:29.107Z,78.53
2018-11-10T06:31:58.260Z,84.20
2018-11-10T06:34:27.361Z,75.77
2018-11-10T06:36:56.483Z,74.90
2018-11-10T06:39:25.579Z,74.43
2018-11-10T06:41:54.740Z,80.73
2018-11-10T06:44:23.858Z,83.43
2018-11-10T06:46:52.980Z,79.63
2018-11-10T06:49:22.153Z,79.53
2018-11-10T06:51:51.266Z,77.50
2018-11-10T06:54:20.352Z,82.97
2018-11-10T06:56:49.484Z,84.63
2018-11-10T06:59:18.615Z,77.93
2018-11-10T07:01:47.709Z,67.33
2018-11-10T07:04:16.829Z,74.90
2018-11-10T07:06:45.949Z,78.70
2018-11-10T07:09:15.254Z,78.47
2018-11-10T07:11:44.283Z,83.23
2018-11-10T07:14:13.400Z,70.00
2018-11-10T07:16:42.511Z,74.03
2018-11-10T07:19:11.598Z,63.90
2018-11-10T07:21:40.750Z,65.20
2018-11-10T07:24:09.863Z,76.83
2018-11-10T07:26:38.954Z,66.67
2018-11-10T07:29:08.063Z,61.20
2018-11-10T07:31:37.196Z,69.87
2018-11-10T07:34:06.385Z,70.43
2018-11-10T07:36:35.560Z,62.10
2018-11-10T07:39:06.112Z,62.67
2018-11-10T07:41:35.292Z,64.17
2018-11-10T07:44:04.526Z,59.63
2018-11-10T07:46:33.634Z,58.77
2018-11-10T07:49:02.786Z,60.80
2018-11-10T07:51:32.339Z,54.83
2018-11-10T07:54:01.575Z,62.90
2018-11-10T07:56:31.041Z,62.77
2018-11-10T07:59:00.251Z,56.80
2018-11-10T08:01:29.357Z,57.33
2018-11-10T08:03:58.498Z,52.37
2018-11-10T08:06:27.617Z,49.50
2018-11-10T08:08:56.736Z,61.40
2018-11-10T08:11:25.836Z,53.30
2018-11-10T08:13:54.961Z,54.10
2018-11-10T08:16:24.088Z,50.80
2018-11-10T08:18:53.208Z,58.50
2018-11-10T08:21:22.335Z,53.97
2018-11-10T08:23:51.456Z,50.00
2018-11-10T08:26:20.579Z,52.27
2018-11-10T08:28:49.783Z,53.70
2018-11-10T08:31:19.021Z,48.93
2018-11-10T08:33:48.119Z,47.53
2018-11-10T08:36:17.243Z,51.13
2018-11-10T08:38:46.372Z,51.43
2018-11-10T08:41:15.498Z,54.73
2018-11-10T08:43:44.615Z,55.03
2018-11-10T08:46:13.747Z,48.67
2018-11-10T08:48:42.903Z,56.53
2018-11-10T08:51:12.028Z,50.00
2018-11-10T08:53:41.155Z,49.20
2018-11-10T08:56:10.253Z,43.47
2018-11-10T08:58:39.414Z,41.87
2018-11-10T09:01:08.555Z,37.83
2018-11-10T09:03:37.634Z,39.90
2018-11-10T09:06:06.734Z,38.13
2018-11-10T09:08:35.829Z,35.87
2018-11-10T09:11:04.963Z,45.90
2018-11-10T09:13:34.060Z,38.10
2018-11-10T09:16:03.167Z,39.67
2018-11-10T09:18:32.294Z,38.83
2018-11-10T09:21:01.411Z,35.50
2018-11-10T09:23:30.571Z,40.50
2018-11-10T09:25:59.705Z,42.40
2018-11-10T09:28:28.820Z,38.37
2018-11-10T09:30:57.990Z,42.07
2018-11-10T09:33:27.085Z,38.00
2018-11-10T09:35:56.217Z,41.37
2018-11-10T09:38:25.314Z,41.00
2018-11-10T09:40:54.438Z,43.80
2018-11-10T09:43:23.539Z,41.20
2018-11-10T09:45:52.678Z,43.87
2018-11-10T09:48:21.797Z,39.80
2018-11-10T09:50:50.971Z,38.63
2018-11-10T09:53:20.121Z,43.10
2018-11-10T09:55:49.254Z,43.53
2018-11-10T09:58:18.390Z,41.53
2018-11-10T10:00:47.486Z,40.37
2018-11-10T10:03:16.604Z,45.30
2018-11-10T10:05:45.733Z,43.57
2018-11-10T10:08:15.049Z,43.53
2018-11-10T10:10:44.154Z,44.17
2018-11-10T10:13:13.288Z,44.03
2018-11-10T10:15:42.472Z,47.17
2018-11-10T10:18:11.585Z,41.03
2018-11-10T10:20:40.726Z,37.00
2018-11-10T10:23:09.824Z,41.10
2018-11-10T10:25:38.935Z,39.30
2018-11-10T10:28:08.113Z,34.50
2018-11-10T10:30:37.193Z,36.80
2018-11-10T10:33:06.310Z,35.00
2018-11-10T10:35:35.616Z,33.37
2018-11-10T10:38:04.592Z,36.20
2018-11-10T10:40:33.823Z,34.90
2018-11-10T10:43:02.984Z,31.67
2018-11-10T10:45:32.083Z,35.07
2018-11-10T10:48:01.176Z,33.60
2018-11-10T10:50:30.293Z,31.53
2018-11-10T10:52:59.424Z,29.60
2018-11-10T10:55:28.574Z,29.57
2018-11-10T10:57:57.691Z,28.77
2018-11-10T11:00:32.095Z,37.83
2018-11-10T11:03:06.620Z,28.70
2018-11-10T11:05:42.383Z,29.47
2018-11-10T11:08:11.509Z,29.63
2018-11-10T11:10:40.639Z,27.73
2018-11-10T11:13:09.726Z,36.53
2018-11-10T11:15:38.888Z,31.73
2018-11-10T11:18:07.966Z,28.80
2018-11-10T11:20:37.066Z,31.90
2018-11-10T11:23:06.226Z,29.20
2018-11-10T11:25:35.356Z,32.53
2018-11-10T11:28:04.477Z,31.50
2018-11-10T11:30:33.572Z,32.27
2018-11-10T11:33:02.737Z,28.37
2018-11-10T11:35:31.849Z,30.30
2018-11-10T11:38:00.926Z,28.27
2018-11-10T11:40:30.095Z,27.97
2018-11-10T11:42:59.202Z,24.20
2018-11-10T11:45:28.300Z,25.63
2018-11-10T11:47:57.407Z,24.40
2018-11-10T11:50:26.491Z,26.80
2018-11-10T11:53:02.538Z,32.23
2018-11-10T11:55:31.644Z,27.70
2018-11-10T11:58:00.905Z,26.33
2018-11-10T12:00:29.887Z,28.77
2018-11-10T12:02:58.979Z,33.97
2018-11-10T12:05:28.050Z,24.03
2018-11-10T12:07:57.218Z,30.10
2018-11-10T12:10:26.311Z,23.00
2018-11-10T12:12:55.416Z,23.27
2018-11-10T12:15:24.537Z,25.43
2018-11-10T12:17:53.639Z,27.27
2018-11-10T12:20:22.748Z,26.17
2018-11-10T12:22:51.878Z,32.27
2018-11-10T12:25:20.980Z,22.83
2018-11-10T12:27:50.091Z,23.57
2018-11-10T12:30:19.230Z,23.10
2018-11-10T12:32:48.384Z,22.37
2018-11-10T12:35:17.534Z,24.50
2018-11-10T12:37:46.678Z,20.53
2018-11-10T12:40:15.802Z,21.67
2018-11-10T12:42:44.940Z,21.87
2018-11-10T12:45:14.681Z,18.43
2018-11-10T12:47:44.201Z,19.87
2018-11-10T12:50:14.319Z,21.13
2018-11-10T12:52:44.398Z,22.20
2018-11-10T12:55:14.583Z,22.23
2018-11-10T12:57:44.391Z,18.37
2018-11-10T13:00:14.824Z,24.07
2018-11-10T13:02:44.406Z,17.07
2018-11-10T13:05:13.857Z,20.33
2018-11-10T13:07:45.368Z,22.50
2018-11-10T13:10:14.513Z,21.40
2018-11-10T13:12:44.083Z,21.07
2018-11-10T13:15:13.264Z,21.40
2018-11-10T13:17:42.487Z,19.40
2018-11-10T13:20:14.028Z,19.87
2018-11-10T13:22:43.198Z,18.23
2018-11-10T13:25:13.345Z,20.60
2018-11-10T13:27:42.490Z,19.67
2018-11-10T13:30:13.481Z,22.10
2018-11-10T13:32:42.657Z,20.13
2018-11-10T13:35:11.945Z,17.70
2018-11-10T13:37:41.086Z,19.60
2018-11-10T13:40:10.479Z,18.93
2018-11-10T13:42:39.615Z,21.80
2018-11-10T13:45:11.182Z,19.63
2018-11-10T13:47:40.295Z,16.23
2018-11-10T13:50:11.551Z,21.67
2018-11-10T13:52:42.013Z,16.00
2018-11-10T13:55:11.312Z,16.60
2018-11-10T13:57:40.501Z,21.60
2018-11-10T14:00:13.163Z,18.80
2018-11-10T14:02:42.562Z,17.33
2018-11-10T14:05:12.209Z,16.80
2018-11-10T14:07:41.360Z,18.90
2018-11-10T14:10:12.465Z,20.20
2018-11-10T14:12:42.568Z,18.70
2018-11-10T14:15:11.580Z,18.03
2018-11-10T14:17:41.553Z,17.57
2018-11-10T14:20:13.205Z,17.93
2018-11-10T14:22:42.331Z,20.17
2018-11-10T14:25:12.726Z,17.80
2018-11-10T14:27:42.660Z,23.17
2018-11-10T14:30:13.914Z,18.83
2018-11-10T14:32:49.194Z,22.47
2018-11-10T14:35:18.343Z,14.93
2018-11-10T14:37:47.439Z,18.10
2018-11-10T14:40:17.660Z,19.90
2018-11-10T14:42:46.934Z,17.27
2018-11-10T14:45:17.480Z,17.70
2018-11-10T14:47:46.622Z,20.70
2018-11-10T14:50:16.479Z,21.43
2018-11-10T14:52:45.719Z,19.00
2018-11-10T14:55:15.185Z,18.60
2018-11-10T14:57:44.610Z,18.23
2018-11-10T15:00:16.473Z,27.30
2018-11-10T15:02:45.607Z,22.00
2018-11-10T15:05:14.952Z,20.33
2018-11-10T15:07:44.577Z,22.40
2018-11-10T15:10:14.903Z,23.23
2018-11-10T15:12:44.680Z,23.27
2018-11-10T15:15:14.932Z,25.20
2018-11-10T15:17:44.419Z,27.60
2018-11-10T15:20:14.767Z,20.90
2018-11-10T15:22:43.844Z,23.40
2018-11-10T15:25:14.225Z,20.80
2018-11-10T15:27:43.305Z,22.27
2018-11-10T15:30:17.683Z,21.23
2018-11-10T15:32:47.408Z,21.03
2018-11-10T15:35:17.725Z,19.13
2018-11-10T15:37:48.005Z,20.63
2018-11-10T15:40:17.767Z,20.03
2018-11-10T15:42:46.876Z,20.60
2018-11-10T15:45:17.066Z,22.27
2018-11-10T15:47:46.306Z,20.30
2018-11-10T15:50:16.504Z,23.53
2018-11-10T15:52:45.611Z,19.00
2018-11-10T15:55:14.725Z,22.17
2018-11-10T15:57:44.109Z,22.57
2018-11-10T16:00:14.418Z,25.83
2018-11-10T16:02:43.534Z,20.12
2018-11-10T16:05:13.131Z,21.12
2018-11-10T16:07:42.268Z,18.70
2018-11-10T16:10:11.756Z,20.82
2018-11-10T16:12:40.971Z,20.80
2018-11-10T16:15:12.622Z,18.77
2018-11-10T16:17:41.839Z,18.67
2018-11-10T16:20:14.088Z,21.07
2018-11-10T16:22:44.263Z,23.65
2018-11-10T16:25:13.404Z,22.27
2018-11-10T16:27:42.518Z,25.60
2018-11-10T16:30:15.254Z,26.17
2018-11-10T16:32:44.792Z,23.80
2018-11-10T16:35:13.896Z,24.00
2018-11-10T16:37:43.049Z,30.83
2018-11-10T16:40:15.083Z,29.00
2018-11-10T16:42:45.125Z,26.00
2018-11-10T16:45:14.970Z,30.30
2018-11-10T16:47:44.058Z,28.80
2018-11-10T16:50:13.123Z,26.90
2018-11-10T16:52:43.038Z,30.37
2018-11-10T16:55:12.182Z,29.07
2018-11-10T16:57:41.226Z,33.03
2018-11-10T17:00:15.030Z,28.20
2018-11-10T17:02:44.250Z,31.20
2018-11-10T17:05:13.320Z,30.83
2018-11-10T17:07:42.426Z,28.73
2018-11-10T17:10:14.205Z,29.57
2018-11-10T17:12:43.389Z,31.47
2018-11-10T17:15:12.547Z,31.40
2018-11-10T17:17:41.659Z,30.40
2018-11-10T17:20:13.612Z,26.97
2018-11-10T17:22:42.708Z,30.53
2018-11-10T17:25:12.557Z,31.30
2018-11-10T17:27:42.045Z,30.77
2018-11-10T17:30:18.082Z,30.03
2018-11-10T17:32:47.088Z,30.97
2018-11-10T17:35:16.294Z,32.80
2018-11-10T17:37:45.762Z,31.47
2018-11-10T17:40:15.462Z,31.20
2018-11-10T17:42:44.544Z,34.13
2018-11-10T17:45:15.063Z,31.37
2018-11-10T17:47:44.268Z,32.27
2018-11-10T17:50:14.460Z,30.90
2018-11-10T17:52:43.657Z,35.13
2018-11-10T17:55:13.883Z,35.63
2018-11-10T17:57:43.431Z,30.20
2018-11-10T18:00:12.689Z,37.13
2018-11-10T18:02:42.015Z,29.83
2018-11-10T18:05:13.416Z,30.60
2018-11-10T18:07:42.698Z,36.97
2018-11-10T18:10:13.886Z,33.47
2018-11-10T18:12:43.748Z,37.40
2018-11-10T18:15:13.208Z,35.33
2018-11-10T18:17:42.596Z,35.33
2018-11-10T18:20:13.350Z,31.30
2018-11-10T18:22:42.729Z,32.57
2018-11-10T18:25:11.854Z,37.87
2018-11-10T18:27:40.948Z,28.40
2018-11-10T18:30:12.898Z,34.27
2018-11-10T18:32:42.131Z,32.90
2018-11-10T18:35:11.829Z,39.50
2018-11-10T18:37:41.313Z,35.87
2018-11-10T18:40:10.546Z,38.47
2018-11-10T18:42:39.545Z,42.53
2018-11-10T18:45:09.943Z,36.27
2018-11-10T18:47:39.533Z,36.03
2018-11-10T18:50:11.671Z,33.00
2018-11-10T18:52:40.774Z,34.30
2018-11-10T18:55:09.933Z,36.40
2018-11-10T18:57:39.287Z,32.37
2018-11-10T19:00:11.362Z,35.83
2018-11-10T19:02:40.766Z,38.77
2018-11-10T19:05:11.402Z,38.77
2018-11-10T19:07:40.697Z,36.93
2018-11-10T19:10:12.067Z,34.87
2018-11-10T19:12:41.935Z,34.70
2018-11-10T19:15:14.036Z,35.63
2018-11-10T19:17:43.135Z,41.07
2018-11-10T19:20:12.829Z,33.00
2018-11-10T19:22:42.024Z,36.20
2018-11-10T19:25:12.357Z,37.50
2018-11-10T19:27:41.422Z,37.30
2018-11-10T19:30:15.399Z,34.40
2018-11-10T19:32:45.457Z,32.23
2018-11-10T19:35:15.300Z,37.00
2018-11-10T19:37:44.681Z,34.60
2018-11-10T19:40:13.876Z,31.97
2018-11-10T19:42:44.115Z,31.30
2018-11-10T19:45:13.409Z,32.73
2018-11-10T19:47:43.629Z,35.73
2018-11-10T19:50:13.313Z,34.57
2018-11-10T19:52:42.481Z,34.60
2018-11-10T19:55:14.221Z,35.00
2018-11-10T19:57:43.481Z,35.97
2018-11-10T20:00:16.878Z,36.97
2018-11-10T20:02:46.102Z,35.30
2018-11-10T20:05:15.174Z,36.03
2018-11-10T20:07:44.352Z,35.77
2018-11-10T20:10:13.781Z,36.20
2018-11-10T20:12:43.311Z,37.43
2018-11-10T20:15:13.705Z,40.97
2018-11-10T20:17:43.148Z,45.93
2018-11-10T20:20:13.454Z,39.53
2018-11-10T20:22:42.946Z,36.30
2018-11-10T20:25:13.282Z,35.27
2018-11-10T20:27:42.467Z,33.60
2018-11-10T20:30:14.561Z,35.57
2018-11-10T20:32:43.748Z,35.43
2018-11-10T20:35:13.551Z,34.00
2018-11-10T20:37:43.260Z,34.50
2018-11-10T20:40:13.689Z,40.50
2018-11-10T20:42:42.982Z,38.60
2018-11-10T20:45:15.657Z,40.63
2018-11-10T20:47:44.736Z,41.00
2018-11-10T20:50:14.579Z,38.47
2018-11-10T20:52:43.668Z,34.77
2018-11-10T20:55:13.276Z,36.30
2018-11-10T20:57:42.395Z,34.17
2018-11-10T21:00:17.256Z,33.67
2018-11-10T21:02:46.517Z,36.70
2018-11-10T21:05:16.006Z,35.43
2018-11-10T21:07:45.117Z,39.67
2018-11-10T21:10:16.239Z,32.83
2018-11-10T21:12:46.086Z,36.43
2018-11-10T21:15:15.768Z,34.90
2018-11-10T21:17:45.078Z,38.03
2018-11-10T21:20:14.456Z,34.03
2018-11-10T21:22:43.770Z,31.20
2018-11-10T21:25:14.906Z,33.87
2018-11-10T21:27:44.313Z,38.40
2018-11-10T21:30:14.719Z,35.27
2018-11-10T21:32:44.137Z,31.97
2018-11-10T21:35:13.329Z,36.83
2018-11-10T21:37:42.392Z,32.83
2018-11-10T21:40:14.795Z,35.50
2018-11-10T21:42:44.223Z,36.33
2018-11-10T21:45:14.042Z,33.83
2018-11-10T21:47:43.441Z,36.40
2018-11-10T21:50:14.899Z,32.20
2018-11-10T21:52:44.801Z,33.53
2018-11-10T21:55:16.051Z,32.50
2018-11-10T21:57:45.799Z,33.10
2018-11-10T22:00:17.285Z,36.73
2018-11-10T22:02:46.905Z,34.40
2018-11-10T22:05:15.852Z,33.87
2018-11-10T22:07:44.934Z,35.27
2018-11-10T22:10:15.233Z,35.23
2018-11-10T22:12:44.649Z,35.20
2018-11-10T22:15:18.134Z,30.10
2018-11-10T22:17:47.559Z,37.03
2018-11-10T22:20:18.105Z,38.40
2018-11-10T22:22:47.235Z,30.53
2018-11-10T22:25:16.770Z,31.63
2018-11-10T22:27:47.309Z,37.43
2018-11-10T22:30:17.723Z,31.97
2018-11-10T22:32:47.477Z,35.87
2018-11-10T22:35:16.617Z,37.73
2018-11-10T22:37:45.792Z,37.23
2018-11-10T22:40:17.112Z,39.43
2018-11-10T22:42:46.473Z,36.67
2018-11-10T22:45:16.924Z,35.83
2018-11-10T22:47:46.024Z,33.00
2018-11-10T22:50:16.748Z,36.07
2018-11-10T22:52:45.911Z,30.50
2018-11-10T22:55:14.992Z,38.57
2018-11-10T22:57:44.126Z,38.93
2018-11-10T23:00:23.569Z,37.17
2018-11-10T23:02:54.842Z,36.57
2018-11-10T23:05:24.404Z,36.43
2018-11-10T23:07:53.478Z,39.27
2018-11-10T23:10:22.847Z,34.50
2018-11-10T23:12:52.710Z,35.20
2018-11-10T23:15:21.797Z,35.77
2018-11-10T23:17:50.873Z,40.20
2018-11-10T23:20:20.422Z,36.13
2018-11-10T23:22:49.564Z,42.63
2018-11-10T23:25:19.221Z,37.57
2018-11-10T23:27:48.339Z,38.53
2018-11-10T23:30:18.986Z,35.90
2018-11-10T23:32:48.059Z,36.97
2018-11-10T23:35:17.205Z,38.93
2018-11-10T23:37:46.351Z,37.47
2018-11-10T23:40:16.472Z,35.90
2018-11-10T23:42:45.678Z,36.43
2018-11-10T23:45:15.278Z,36.03
2018-11-10T23:47:44.387Z,37.03
2018-11-10T23:50:14.844Z,32.40
2018-11-10T23:52:43.949Z,34.77
2018-11-10T23:55:13.925Z,36.20
2018-11-10T23:57:43.039Z,38.77
